Terminal Aerodrome Forecast
Issued by NWS Charleston, WV

Current Version | Previous Version | Text Only | Print | Product List | Glossary Off
Versions: 1 2 3 4 5 6 7 8 9 10 11 12 13 14 15 16 17 18 19 20 21 22 23 24 25

697
FTUS41 KRLX 251120
TAFBKW
TAF
KBKW 251120Z 2512/2612 08006KT P6SM -SHRA OVC010
     FM251400 07006KT P6SM OVC015
     FM251600 06005KT P6SM BKN025
     FM251800 05004KT P6SM OVC035
     FM260400 VRB03KT 5SM BR SCT025
     FM260600 00000KT 2SM BR SCT025=

USA.gov is the U.S. government's official web portal to all federal, state and local government web resources and services.